createdAt,value
2018-02-12T00:00:01.251Z,1.9
2018-02-12T00:05:01.826Z,1.9
2018-02-12T00:10:02.140Z,1.9
2018-02-12T00:15:01.633Z,1.6
2018-02-12T00:20:01.931Z,1.5
2018-02-12T00:25:01.432Z,1.5
2018-02-12T00:30:01.647Z,1.5
2018-02-12T00:35:02.196Z,1.5
2018-02-12T00:40:01.440Z,1.5
2018-02-12T00:45:02.905Z,1.4
2018-02-12T00:50:01.573Z,1.4
2018-02-12T00:55:01.384Z,1.4
2018-02-12T01:00:01.611Z,1.4
2018-02-12T01:05:02.086Z,1.4
2018-02-12T01:10:01.292Z,1.4
2018-02-12T01:15:01.499Z,1.4
2018-02-12T01:20:01.429Z,1.4
2018-02-12T01:25:01.923Z,1.4
2018-02-12T01:30:01.423Z,1.4
2018-02-12T01:35:02.098Z,1.4
2018-02-12T01:40:01.764Z,1.4
2018-02-12T01:45:01.968Z,1.3
2018-02-12T01:50:01.723Z,1.3
2018-02-12T01:55:02.236Z,1.3
2018-02-12T02:00:01.966Z,1.2
2018-02-12T02:05:02.367Z,1.2
2018-02-12T02:10:02.146Z,1.2
2018-02-12T02:15:01.906Z,1.2
2018-02-12T02:20:01.705Z,1.2
2018-02-12T02:25:02.516Z,1.2
2018-02-12T02:30:01.660Z,1.2
2018-02-12T02:35:01.730Z,1.2
2018-02-12T02:40:01.813Z,1.2
2018-02-12T02:45:01.997Z,1.2
2018-02-12T02:50:01.765Z,1.2
2018-02-12T02:55:01.664Z,1.2
2018-02-12T03:00:02.366Z,1.2
2018-02-12T03:05:01.198Z,1.1
2018-02-12T03:10:01.416Z,1.1
2018-02-12T03:15:01.610Z,1.1
2018-02-12T03:20:02.247Z,1.1
2018-02-12T03:25:01.500Z,1.1
2018-02-12T03:30:01.286Z,1.1
2018-02-12T03:35:02.397Z,1.1
2018-02-12T03:40:02.142Z,1.1
2018-02-12T03:45:01.488Z,1.1
2018-02-12T03:50:02.398Z,1.1
2018-02-12T03:55:01.929Z,1.1
2018-02-12T04:00:01.623Z,1.1
2018-02-12T04:05:01.496Z,1.1
2018-02-12T04:10:02.007Z,1
2018-02-12T04:15:01.867Z,1
2018-02-12T04:20:01.568Z,1
2018-02-12T04:25:02.337Z,1
2018-02-12T04:30:01.591Z,1
2018-02-12T04:35:01.938Z,1
2018-02-12T04:40:02.649Z,1
2018-02-12T04:45:01.875Z,1.1
2018-02-12T04:50:01.959Z,1.1
2018-02-12T04:55:02.448Z,1.1
2018-02-12T05:00:01.654Z,1.1
2018-02-12T05:05:02.177Z,1.1
2018-02-12T05:10:01.167Z,1.1
2018-02-12T05:15:01.868Z,1.1
2018-02-12T05:20:01.459Z,1.1
2018-02-12T05:25:01.440Z,1.1
2018-02-12T05:30:02.188Z,1.1
2018-02-12T05:35:01.772Z,1.1
2018-02-12T05:40:01.868Z,1.1
2018-02-12T05:45:01.981Z,1.1
2018-02-12T05:50:02.632Z,1.1
2018-02-12T05:55:01.238Z,1.1
2018-02-12T06:00:01.601Z,1.1
2018-02-12T06:05:01.767Z,1
2018-02-12T06:10:02.271Z,1
2018-02-12T06:15:01.977Z,1
2018-02-12T06:20:01.466Z,1
2018-02-12T06:25:01.297Z,0.9
2018-02-12T06:30:01.900Z,1
2018-02-12T06:35:01.700Z,1
2018-02-12T06:40:01.717Z,1.2
2018-02-12T06:45:02.218Z,1.2
2018-02-12T06:50:02.159Z,1.2
2018-02-12T06:55:01.925Z,1.2
2018-02-12T07:00:01.720Z,1.2
2018-02-12T07:05:02.088Z,1.2
2018-02-12T07:10:01.430Z,1.2
2018-02-12T07:15:02.038Z,1.2
2018-02-12T07:20:01.664Z,1.2
2018-02-12T07:25:02.029Z,1.2
2018-02-12T07:30:02.151Z,1.2
2018-02-12T07:35:01.203Z,1.2
2018-02-12T07:40:02.732Z,1.2
2018-02-12T07:45:01.838Z,1.2
2018-02-12T07:50:01.877Z,1.2
2018-02-12T07:55:01.762Z,1.2
2018-02-12T08:00:01.934Z,1.2
2018-02-12T08:05:01.481Z,1.2
2018-02-12T08:10:01.839Z,1.2
2018-02-12T08:15:02.690Z,1.2
2018-02-12T08:20:01.277Z,1.2
2018-02-12T08:25:01.591Z,1.2
2018-02-12T08:30:02.060Z,1.2
2018-02-12T08:35:01.772Z,1.2
2018-02-12T08:40:01.720Z,1.2
2018-02-12T08:45:01.206Z,1.2
2018-02-12T08:50:01.740Z,1.2
2018-02-12T08:55:01.766Z,1.2
2018-02-12T09:00:02.078Z,1.2
2018-02-12T09:05:01.194Z,1.2
2018-02-12T09:10:01.927Z,1.2
2018-02-12T09:15:01.616Z,1.2
2018-02-12T09:20:01.342Z,1.2
2018-02-12T09:25:01.898Z,1
2018-02-12T09:30:02.095Z,1
2018-02-12T09:35:01.624Z,0.8
2018-02-12T09:40:02.239Z,0.8
2018-02-12T09:45:01.625Z,0.8
2018-02-12T09:50:01.878Z,0.7
2018-02-12T09:55:02.053Z,0.8
2018-02-12T10:00:02.200Z,0.8
2018-02-12T10:05:01.558Z,0.8
2018-02-12T10:10:01.392Z,0.8
2018-02-12T10:15:01.986Z,0.8
2018-02-12T10:20:01.950Z,0.8
2018-02-12T10:25:01.866Z,0.8
2018-02-12T10:30:01.296Z,0.8
2018-02-12T10:35:02.335Z,0.9
2018-02-12T10:40:01.226Z,0.9
2018-02-12T10:45:01.263Z,0.9
2018-02-12T10:50:01.363Z,0.9
2018-02-12T10:55:01.520Z,0.9
2018-02-12T11:00:01.995Z,1.4
2018-02-12T11:05:01.512Z,1.4
2018-02-12T11:10:02.255Z,1.4
2018-02-12T11:15:01.798Z,1.7
2018-02-12T11:20:01.803Z,1.7
2018-02-12T11:25:01.757Z,1.7
2018-02-12T11:30:01.758Z,1.7
2018-02-12T11:35:01.931Z,2
2018-02-12T11:40:02.030Z,2
2018-02-12T11:45:01.792Z,2.1
2018-02-12T11:50:01.808Z,2.1
2018-02-12T11:55:01.967Z,2.1
2018-02-12T12:00:01.884Z,2.1
2018-02-12T12:05:01.939Z,2.1
2018-02-12T12:10:02.131Z,2.1
2018-02-12T12:15:01.780Z,2.1
2018-02-12T12:20:02.540Z,2.1
2018-02-12T12:25:01.461Z,2.3
2018-02-12T12:30:01.710Z,2.3
2018-02-12T12:35:02.109Z,2.3
2018-02-12T12:40:01.825Z,2.3
2018-02-12T12:45:01.473Z,2.3
2018-02-12T12:50:01.931Z,2.3
2018-02-12T12:55:02.499Z,2.3
2018-02-12T13:00:01.912Z,2.3
2018-02-12T13:05:01.200Z,2.3
2018-02-12T13:10:01.480Z,2.3
2018-02-12T13:15:02.368Z,2.3
2018-02-12T13:20:02.011Z,2.9
2018-02-12T13:25:01.749Z,2.9
2018-02-12T13:30:02.687Z,2.9
2018-02-12T13:35:01.275Z,2.9
2018-02-12T13:40:01.261Z,2.9
2018-02-12T13:45:01.195Z,2.9
2018-02-12T13:50:02.360Z,2.9
2018-02-12T13:55:01.367Z,2.9
2018-02-12T14:00:01.606Z,2.9
2018-02-12T14:05:01.733Z,2.9
2018-02-12T14:10:02.456Z,2.9
2018-02-12T14:15:01.533Z,2.9
2018-02-12T14:20:01.497Z,2.9
2018-02-12T14:25:02.038Z,2.9
2018-02-12T14:30:02.439Z,2.9
2018-02-12T14:35:01.962Z,2.9
2018-02-12T14:40:01.396Z,2.9
2018-02-12T14:45:01.865Z,2.9
2018-02-12T14:50:02.046Z,2.9
2018-02-12T14:55:01.484Z,2.9
2018-02-12T15:00:01.436Z,2.9
2018-02-12T15:05:02.387Z,2.1
2018-02-12T15:10:01.215Z,2
2018-02-12T15:15:01.252Z,2
2018-02-12T15:20:01.930Z,1.9
2018-02-12T15:25:02.583Z,1.8
2018-02-12T15:30:01.665Z,1.7
2018-02-12T15:35:01.212Z,1.7
2018-02-12T15:40:02.587Z,1.7
2018-02-12T15:45:01.846Z,1.7
2018-02-12T15:50:01.954Z,1.7
2018-02-12T15:55:01.400Z,1.7
2018-02-12T16:00:01.875Z,1.7
2018-02-12T16:05:01.738Z,1.7
2018-02-12T16:10:01.796Z,1.7
2018-02-12T16:15:02.288Z,1.7
2018-02-12T16:20:02.373Z,1.5
2018-02-12T16:25:02.129Z,1.4
2018-02-12T16:30:01.362Z,1.4
2018-02-12T16:35:02.668Z,1.4
2018-02-12T16:40:01.907Z,1.2
2018-02-12T16:45:01.983Z,1.2
2018-02-12T16:50:01.248Z,1.2
2018-02-12T16:55:02.150Z,1.2
2018-02-12T17:00:01.506Z,1.2
2018-02-12T17:05:01.541Z,1.2
2018-02-12T17:10:01.995Z,1.2
2018-02-12T17:15:01.550Z,1.2
2018-02-12T17:20:01.629Z,1.2
2018-02-12T17:25:01.740Z,1.2
2018-02-12T17:30:01.549Z,1.2
2018-02-12T17:35:01.236Z,1.2
2018-02-12T17:40:01.473Z,1.2
2018-02-12T17:45:02.565Z,1.2
2018-02-12T17:50:01.636Z,1.2
2018-02-12T17:55:02.160Z,1.2
2018-02-12T18:00:02.440Z,0.8
2018-02-12T18:05:01.551Z,0.8
2018-02-12T18:10:01.399Z,0.8
2018-02-12T18:15:02.089Z,0.8
2018-02-12T18:20:02.662Z,0.8
2018-02-12T18:25:02.178Z,0.8
2018-02-12T18:30:01.922Z,0.8
2018-02-12T18:35:01.378Z,0.8
2018-02-12T18:40:01.965Z,0.8
2018-02-12T18:45:02.024Z,0.8
2018-02-12T18:50:01.358Z,0.8
2018-02-12T18:55:01.986Z,0.8
2018-02-12T19:00:01.717Z,0.8
2018-02-12T19:05:02.492Z,0.8
2018-02-12T19:10:01.668Z,0.8
2018-02-12T19:15:02.519Z,0.8
2018-02-12T19:20:02.815Z,0.8
2018-02-12T19:25:01.887Z,0.8
2018-02-12T19:30:02.489Z,0.8
2018-02-12T19:35:02.018Z,0.8
2018-02-12T19:40:01.186Z,0.8
2018-02-12T19:45:01.180Z,0.8
2018-02-12T19:50:01.775Z,0.8
2018-02-12T19:55:01.502Z,0.7
2018-02-12T20:00:01.617Z,0.7
2018-02-12T20:05:02.526Z,0.7
2018-02-12T20:10:01.744Z,0.7
2018-02-12T20:15:01.856Z,0.4
2018-02-12T20:20:02.562Z,0.4
2018-02-12T20:25:01.594Z,0.3
2018-02-12T20:30:01.982Z,0.3
2018-02-12T20:35:01.836Z,0.3
2018-02-12T20:40:02.352Z,0.3
2018-02-12T20:45:01.641Z,0.3
2018-02-12T20:50:02.140Z,0.3
2018-02-12T20:55:01.635Z,0.3
2018-02-12T21:00:01.784Z,0.3
2018-02-12T21:05:01.666Z,0.3
2018-02-12T21:10:01.616Z,0.3
2018-02-12T21:15:02.653Z,0.3
2018-02-12T21:20:01.677Z,0.3
2018-02-12T21:25:01.414Z,0.3
2018-02-12T21:30:01.749Z,0.3
2018-02-12T21:35:02.135Z,0.3
2018-02-12T21:40:01.909Z,0.3
2018-02-12T21:45:01.694Z,0.3
2018-02-12T21:50:01.533Z,0.4
2018-02-12T21:55:02.179Z,0.4
2018-02-12T22:00:01.343Z,0.3
2018-02-12T22:05:01.484Z,0.3
2018-02-12T22:10:01.465Z,0.3
2018-02-12T22:15:01.710Z,0.3
2018-02-12T22:20:01.725Z,0.2
2018-02-12T22:25:01.386Z,0.2
2018-02-12T22:30:02.106Z,0.1
2018-02-12T22:35:01.402Z,0.1
2018-02-12T22:40:01.869Z,0.1
2018-02-12T22:45:01.981Z,0.1
2018-02-12T22:50:02.304Z,0.2
2018-02-12T22:55:01.299Z,0.1
2018-02-12T23:00:01.608Z,0.1
2018-02-12T23:05:01.912Z,0.1
2018-02-12T23:10:02.308Z,0
2018-02-12T23:15:01.888Z,0
2018-02-12T23:20:01.933Z,0
2018-02-12T23:25:01.576Z,0
2018-02-12T23:30:01.970Z,0
2018-02-12T23:35:02.184Z,0
2018-02-12T23:40:01.191Z,0
2018-02-12T23:45:01.673Z,0
2018-02-12T23:50:01.566Z,-0.2
2018-02-12T23:55:01.518Z,-0.3
